Airfield :
LOGIN :

Register | Disclaimer

   EN    FR    IT 

 










Legend :    VFR   Marginal VFR   IFR   Intensive IFR   Very Intensive IFR
Visi :
Ceiling :
>= 8 km
>= 3000ft
5 to 8 km
1000 to 3000 ft
1500m to 5 km
500 to 1000 ft
800 to 1500m
200 to 500 ft
< 800m
< 200 ft
Symbols :   Thunderstorms  Fog  Heavy snow  Heavy precipitations  Wind > 20 kt
SIGMETs :     Misc.  Thunderstorms  Icing  Turbulence  Mountain Waves  Volcanic Ashes






- Airport Elevation : 121 ft
- IATA code : HUY


EGNJ - Humberside

CURRENT METAR :
  • 021150Z 20010KT 4500 BR FEW005 BKN015 06/06 Q1015

EXPIRED METARs :
  • 021120Z 20009KT 4500 -DZ BR FEW005 BKN015 06/06 Q1015
  • 021050Z 20010KT 4500 -DZ BR SCT005 BKN016 06/06 Q1016
  • 021020Z 21009KT 4500 -DZ BR SCT005 BKN016 06/06 Q1016
  • 020950Z 20008KT 4500 -DZ BR SCT005 BKN027 06/05 Q1017
  • 020920Z 21009KT 4500 -DZ BR SCT005 BKN027 05/05 Q1017
  • 020850Z 21009KT 7000 SCT005 BKN027 05/05 Q1018

TAF TAF EGNJ
Valid from the 02 at 12:00 until the 02 at 21:00 UTC


021109Z 0212/0221 20006KT 9999 BKN020
BECMG 0212/0215 28010KT
TEMPO 0212/0215 6000 -RADZ BKN010
PROB30
TEMPO 0212/0215 3000 RADZ BKN007
BECMG 0218/0221 22007KT
ATIS : +44 1652 682 020



MET'MAP, your aeronautical weather chart ! - Copyright ORBIFLY December 2007 - Disclaimer

ORBIFLY MET'MAP TEAM :

Programming & Development : Alexandra Zaïnal
Concept & original design : Baudouin d'Aumeries
Assistance for programming : Marc-Olivier Méhu
Technical & hardware support : Manuel Goepfert

Contact : metmap@orbifly.com




SOURCES & CREDITS :

   NOAA